Time;durP1;ratioP1;P1;durP2;ratioP2;P2;SDS_P1;SDS_P2;PMS_P1;PMS_P2;Temp;Humidity;BMP_temperature;BMP_pressure;BME280_temperature;BME280_humidity;BME280_pressure;Samples;Min_cycle;Max_cycle;Signal;HPM_P1;HPM_P2
2022/09/08 00:00:52;;;;;;;2.42;1.10;;;19.70;99.90;;;;;;4989690;28;20452;-84
2022/09/08 00:03:22;;;;;;;1.42;1.00;;;19.70;99.90;;;;;;4986948;28;20055;-82
2022/09/08 00:06:01;;;;;;;1.15;0.82;;;19.70;99.90;;;;;;4987453;28;20047;-82
2022/09/08 00:08:28;;;;;;;3.50;0.98;;;19.80;99.90;;;;;;4986199;28;20409;-82
2022/09/08 00:10:58;;;;;;;2.40;0.90;;;19.80;99.90;;;;;;4987970;28;20073;-81
2022/09/08 00:13:29;;;;;;;1.65;0.93;;;19.80;99.90;;;;;;4985336;28;20147;-83
2022/09/08 00:15:56;;;;;;;2.35;1.08;;;19.80;99.90;;;;;;4984957;28;20127;-82
2022/09/08 00:18:25;;;;;;;2.20;1.10;;;19.80;99.90;;;;;;4983513;28;20089;-81
2022/09/08 00:20:52;;;;;;;2.38;1.05;;;19.70;99.90;;;;;;4985827;28;20046;-84
2022/09/08 00:23:19;;;;;;;1.63;0.90;;;19.60;99.90;;;;;;4986466;28;20168;-82
2022/09/08 00:25:46;;;;;;;2.20;1.13;;;19.50;99.90;;;;;;4993112;28;20065;-81
2022/09/08 00:28:13;;;;;;;1.73;1.05;;;19.50;99.90;;;;;;4995359;28;20049;-81
2022/09/08 00:30:40;;;;;;;1.27;0.57;;;19.30;99.90;;;;;;4987358;28;20054;-81
2022/09/08 00:33:06;;;;;;;1.65;0.80;;;19.30;99.90;;;;;;4995789;28;20047;-82
2022/09/08 00:35:33;;;;;;;2.58;1.00;;;19.30;99.90;;;;;;4989378;28;20053;-81
2022/09/08 00:38:00;;;;;;;2.25;0.80;;;19.30;99.90;;;;;;4988246;28;20213;-81
2022/09/08 00:40:27;;;;;;;2.40;0.82;;;19.30;99.90;;;;;;4984128;28;20057;-82
2022/09/08 00:43:02;;;;;;;2.53;0.80;;;19.40;99.90;;;;;;4986125;28;20054;-81
2022/09/08 00:45:40;;;;;;;0.85;0.65;;;19.40;99.90;;;;;;4989054;28;20062;-81
2022/09/08 00:48:16;;;;;;;2.05;0.90;;;19.40;99.90;;;;;;4990940;28;20065;-83
2022/09/08 00:50:45;;;;;;;0.77;0.77;;;19.40;99.90;;;;;;4985316;28;20050;-81
2022/09/08 00:53:15;;;;;;;2.53;0.90;;;19.40;99.90;;;;;;4981917;28;20061;-82
2022/09/08 00:55:42;;;;;;;1.35;0.73;;;19.40;99.90;;;;;;4982863;28;20527;-81
2022/09/08 00:58:11;;;;;;;1.35;0.60;;;19.50;99.90;;;;;;4987414;28;20524;-83
2022/09/08 01:00:40;;;;;;;1.17;0.60;;;19.50;99.90;;;;;;4982219;28;20047;-84
2022/09/08 01:03:09;;;;;;;0.90;0.70;;;19.30;99.90;;;;;;4988039;28;20081;-82
2022/09/08 01:05:46;;;;;;;1.80;0.57;;;19.20;99.90;;;;;;4984542;28;20055;-81
2022/09/08 01:14:17;;;;;;;2.47;0.50;;;19.10;99.90;;;;;;4985737;28;20046;-80
2022/09/08 01:16:46;;;;;;;1.88;0.55;;;19.10;99.90;;;;;;5008210;22;20050;-75
2022/09/08 01:19:23;;;;;;;0.85;0.50;;;19.10;99.90;;;;;;5008203;28;20416;-76
2022/09/08 01:21:57;;;;;;;1.25;0.50;;;19.00;99.90;;;;;;5006882;28;20050;-75
2022/09/08 01:24:45;;;;;;;0.82;0.40;;;19.00;99.90;;;;;;5002257;28;20050;-76
2022/09/08 01:27:12;;;;;;;2.80;0.60;;;19.00;99.90;;;;;;5008618;28;20427;-75
2022/09/08 01:29:41;;;;;;;4.32;0.98;;;19.00;99.90;;;;;;5001827;28;20061;-75
2022/09/08 01:32:09;;;;;;;1.45;0.57;;;19.00;99.90;;;;;;5004445;28;20050;-75
2022/09/08 01:34:39;;;;;;;0.55;0.50;;;19.00;99.90;;;;;;5000023;28;20053;-75
2022/09/08 01:37:05;;;;;;;0.38;0.35;;;19.00;99.90;;;;;;5010145;28;20073;-75
2022/09/08 01:39:32;;;;;;;0.73;0.63;;;19.10;99.90;;;;;;5007606;28;20046;-76
2022/09/08 01:42:00;;;;;;;2.53;0.88;;;19.10;99.90;;;;;;5002612;28;20100;-76
2022/09/08 01:44:29;;;;;;;0.63;0.52;;;19.10;99.90;;;;;;5001155;28;20057;-74
2022/09/08 01:46:56;;;;;;;0.52;0.50;;;19.10;99.90;;;;;;5003191;28;20105;-75
2022/09/08 01:49:23;;;;;;;1.08;0.47;;;19.10;99.90;;;;;;4999895;28;20050;-75
2022/09/08 01:51:50;;;;;;;1.23;0.68;;;19.10;99.90;;;;;;5006899;28;20061;-75
2022/09/08 01:54:17;;;;;;;2.63;0.80;;;19.10;99.90;;;;;;5008141;28;20052;-75
2022/09/08 01:56:43;;;;;;;1.17;0.60;;;19.10;99.90;;;;;;5004987;28;20423;-75
2022/09/08 01:59:10;;;;;;;3.28;0.60;;;19.10;99.90;;;;;;5002922;28;20049;-75
2022/09/08 02:01:37;;;;;;;1.60;0.60;;;19.00;99.90;;;;;;5004434;28;20054;-75
2022/09/08 02:04:03;;;;;;;0.68;0.47;;;19.00;99.90;;;;;;5006424;28;20131;-75
2022/09/08 02:06:30;;;;;;;1.13;0.40;;;19.00;99.90;;;;;;5004553;28;20077;-75
2022/09/08 02:08:57;;;;;;;3.22;0.70;;;19.00;99.90;;;;;;5002054;28;20050;-75
2022/09/08 02:11:24;;;;;;;1.65;0.65;;;19.10;99.90;;;;;;5003170;28;20054;-75
2022/09/08 02:13:51;;;;;;;3.95;0.73;;;19.10;99.90;;;;;;4999492;28;20049;-75
2022/09/08 02:16:17;;;;;;;1.27;0.70;;;19.10;99.90;;;;;;5001577;28;20061;-76
2022/09/08 02:18:45;;;;;;;1.75;0.43;;;19.10;99.90;;;;;;5006972;28;20042;-75
2022/09/08 02:21:15;;;;;;;4.68;0.60;;;19.10;99.90;;;;;;5006194;28;20060;-75
2022/09/08 02:23:44;;;;;;;0.40;0.40;;;19.10;99.90;;;;;;5003199;28;20129;-75
2022/09/08 02:26:28;;;;;;;1.67;0.70;;;19.10;99.90;;;;;;5001327;28;20054;-75
2022/09/08 02:28:55;;;;;;;2.15;0.75;;;19.10;99.90;;;;;;5002646;28;20057;-75
2022/09/08 02:31:23;;;;;;;1.33;0.50;;;19.10;99.90;;;;;;5004654;28;20392;-75
2022/09/08 02:33:50;;;;;;;1.33;0.60;;;19.10;99.90;;;;;;5000667;28;20467;-74
2022/09/08 02:36:17;;;;;;;2.25;0.50;;;19.10;99.90;;;;;;4999623;28;20500;-75
2022/09/08 02:38:49;;;;;;;4.85;0.90;;;19.20;99.90;;;;;;5003030;28;20057;-75
2022/09/08 02:41:16;;;;;;;1.63;0.70;;;19.20;99.90;;;;;;5002845;28;20046;-76
2022/09/08 02:43:43;;;;;;;2.10;0.57;;;19.30;99.90;;;;;;5004212;28;20104;-75
2022/09/08 02:46:10;;;;;;;1.88;0.40;;;19.20;99.90;;;;;;5005099;28;20515;-75
2022/09/08 02:48:37;;;;;;;1.98;0.70;;;19.20;99.90;;;;;;5001144;28;20054;-75
2022/09/08 02:51:06;;;;;;;2.42;0.52;;;19.20;99.90;;;;;;4999061;28;20054;-75
2022/09/08 02:53:33;;;;;;;0.90;0.63;;;19.30;99.90;;;;;;5000640;28;20051;-76
2022/09/08 02:56:01;;;;;;;1.48;0.70;;;19.30;99.90;;;;;;5001540;28;20054;-76
2022/09/08 02:58:28;;;;;;;2.33;0.85;;;19.30;99.90;;;;;;4999302;28;20508;-75
2022/09/08 03:00:55;;;;;;;0.93;0.55;;;19.30;99.90;;;;;;5001407;28;20042;-75
2022/09/08 03:03:23;;;;;;;1.95;0.60;;;19.30;99.90;;;;;;5002286;28;20057;-75
2022/09/08 03:05:50;;;;;;;1.17;0.60;;;19.30;99.90;;;;;;4999305;28;20062;-75
2022/09/08 03:08:19;;;;;;;2.00;0.70;;;19.30;99.90;;;;;;5002227;28;20050;-75
2022/09/08 03:10:48;;;;;;;2.92;0.73;;;19.20;99.90;;;;;;5006270;28;20075;-75
2022/09/08 03:13:15;;;;;;;0.90;0.70;;;19.20;99.90;;;;;;5004556;28;20053;-75
2022/09/08 03:15:42;;;;;;;2.47;0.65;;;19.20;99.90;;;;;;5004043;28;20057;-75
2022/09/08 03:18:09;;;;;;;0.60;0.60;;;19.20;99.90;;;;;;5001314;28;20093;-75
2022/09/08 03:20:38;;;;;;;2.97;0.60;;;19.20;99.90;;;;;;5001694;28;20043;-75
2022/09/08 03:23:04;;;;;;;1.73;0.80;;;19.20;99.90;;;;;;5001207;28;20046;-74
2022/09/08 03:25:36;;;;;;;2.88;0.90;;;19.20;99.90;;;;;;5003547;28;20046;-74
2022/09/08 03:28:04;;;;;;;2.13;0.80;;;19.20;99.90;;;;;;5002646;28;20051;-75
2022/09/08 03:30:32;;;;;;;2.70;0.70;;;19.20;99.90;;;;;;4997685;28;20083;-75
2022/09/08 03:32:59;;;;;;;1.85;0.77;;;19.20;99.90;;;;;;4999287;28;20431;-77
2022/09/08 03:35:26;;;;;;;3.63;1.00;;;19.20;99.90;;;;;;5000987;28;20048;-77
2022/09/08 03:37:54;;;;;;;1.55;0.60;;;19.10;99.90;;;;;;5000570;28;20054;-75
2022/09/08 03:40:20;;;;;;;0.77;0.57;;;19.20;99.90;;;;;;5001856;28;20042;-76
2022/09/08 03:42:47;;;;;;;5.07;0.85;;;19.20;99.90;;;;;;5000393;28;20053;-76
2022/09/08 03:45:17;;;;;;;1.92;0.70;;;19.10;99.90;;;;;;5002707;28;20097;-76
2022/09/08 03:47:44;;;;;;;2.00;0.63;;;19.10;99.90;;;;;;4998782;28;20057;-76
2022/09/08 03:50:14;;;;;;;1.08;0.68;;;19.10;99.90;;;;;;5002515;28;20047;-77
2022/09/08 03:52:40;;;;;;;1.30;0.57;;;19.20;99.90;;;;;;4999511;28;20046;-78
2022/09/08 03:55:08;;;;;;;1.23;0.52;;;19.20;99.90;;;;;;5001460;28;20046;-77
2022/09/08 03:57:35;;;;;;;1.85;0.80;;;19.20;99.90;;;;;;5002090;28;20046;-76
2022/09/08 04:00:04;;;;;;;3.40;0.82;;;19.20;99.90;;;;;;4998250;28;20457;-78
2022/09/08 04:02:31;;;;;;;0.55;0.55;;;19.20;99.90;;;;;;5005546;28;20411;-77
2022/09/08 04:04:58;;;;;;;2.25;0.90;;;19.20;99.90;;;;;;5005594;28;20065;-77
2022/09/08 04:07:28;;;;;;;0.73;0.60;;;19.20;99.90;;;;;;5002075;28;20077;-76
2022/09/08 04:09:56;;;;;;;1.52;0.65;;;19.10;99.90;;;;;;5004346;28;20053;-77
2022/09/08 04:12:24;;;;;;;3.60;1.10;;;19.10;99.90;;;;;;5004288;28;20129;-77
2022/09/08 04:14:51;;;;;;;5.25;0.70;;;19.10;99.90;;;;;;5001156;28;20046;-77
2022/09/08 04:17:19;;;;;;;2.17;0.95;;;19.10;99.90;;;;;;4999574;28;20111;-76
2022/09/08 04:19:49;;;;;;;2.08;0.80;;;19.10;99.90;;;;;;5001498;28;20053;-77
2022/09/08 04:22:22;;;;;;;5.93;0.77;;;19.10;99.90;;;;;;4999190;28;20046;-75
2022/09/08 04:24:49;;;;;;;1.25;0.80;;;19.10;99.90;;;;;;4999345;28;20425;-77
2022/09/08 04:27:22;;;;;;;1.65;0.68;;;19.10;99.90;;;;;;4999853;28;20057;-76
2022/09/08 04:29:50;;;;;;;4.07;1.52;;;19.10;99.90;;;;;;5002446;28;20058;-77
2022/09/08 04:32:18;;;;;;;4.35;1.30;;;19.10;99.90;;;;;;5002493;28;20045;-76
2022/09/08 04:34:49;;;;;;;1.45;0.80;;;19.10;99.90;;;;;;5000513;28;20070;-77
2022/09/08 04:37:17;;;;;;;2.65;0.80;;;19.10;99.90;;;;;;5003366;28;20048;-77
2022/09/08 04:39:44;;;;;;;4.82;1.23;;;19.10;99.90;;;;;;5007140;28;20522;-77
2022/09/08 04:42:11;;;;;;;1.00;0.70;;;19.10;99.90;;;;;;5001338;28;20038;-77
2022/09/08 04:44:37;;;;;;;2.00;0.80;;;19.10;99.90;;;;;;5009292;28;20522;-77
2022/09/08 04:47:04;;;;;;;0.50;0.50;;;19.10;99.90;;;;;;5003858;28;20050;-77
2022/09/08 04:49:31;;;;;;;1.65;0.95;;;19.00;99.90;;;;;;5002964;28;20512;-77
2022/09/08 04:51:58;;;;;;;2.70;1.10;;;19.00;99.90;;;;;;5002002;28;20049;-77
2022/09/08 04:54:24;;;;;;;2.75;0.80;;;18.90;99.90;;;;;;5002932;28;20046;-77
2022/09/08 04:56:51;;;;;;;3.92;0.90;;;18.90;99.90;;;;;;5003660;28;20046;-76
2022/09/08 04:59:18;;;;;;;1.02;0.82;;;18.90;99.90;;;;;;5003075;28;20116;-77
2022/09/08 05:01:44;;;;;;;1.50;0.70;;;18.90;99.90;;;;;;5006375;28;20050;-77
2022/09/08 05:04:11;;;;;;;2.92;0.88;;;18.90;99.90;;;;;;5004867;28;20042;-76
2022/09/08 05:06:38;;;;;;;1.00;0.70;;;18.90;99.90;;;;;;5004009;28;20428;-77
2022/09/08 05:09:05;;;;;;;4.00;0.90;;;18.80;99.90;;;;;;5003788;28;20058;-77
2022/09/08 05:11:33;;;;;;;1.17;1.08;;;18.80;99.90;;;;;;5000293;28;20069;-77
2022/09/08 05:14:00;;;;;;;1.02;0.60;;;18.80;99.90;;;;;;5004171;28;20054;-77
2022/09/08 05:16:28;;;;;;;2.33;1.05;;;18.70;99.90;;;;;;5010417;28;20504;-76
2022/09/08 05:18:58;;;;;;;1.42;0.80;;;18.60;99.90;;;;;;5002343;28;20103;-77
2022/09/08 05:21:26;;;;;;;2.70;0.82;;;18.60;99.90;;;;;;5004356;28;20043;-77
2022/09/08 05:23:54;;;;;;;3.40;0.75;;;18.60;99.90;;;;;;5004684;28;20050;-76
2022/09/08 05:26:22;;;;;;;5.13;1.20;;;18.50;99.90;;;;;;5009407;28;20054;-77
2022/09/08 05:28:49;;;;;;;1.90;0.95;;;18.50;99.90;;;;;;5006025;28;20073;-77
2022/09/08 05:31:22;;;;;;;3.25;0.88;;;18.50;99.90;;;;;;5008577;28;20045;-76
2022/09/08 05:33:50;;;;;;;2.70;0.90;;;18.40;99.90;;;;;;5001127;28;20390;-76
2022/09/08 05:36:19;;;;;;;3.38;1.10;;;18.40;99.90;;;;;;5006622;28;20050;-77
2022/09/08 05:38:47;;;;;;;4.03;0.88;;;18.40;99.90;;;;;;5017517;28;20042;-76
2022/09/08 05:41:15;;;;;;;2.40;0.90;;;18.40;99.90;;;;;;5001277;28;20042;-75
2022/09/08 05:43:42;;;;;;;4.63;1.10;;;18.40;99.90;;;;;;5001012;28;20050;-76
2022/09/08 05:46:09;;;;;;;3.45;0.93;;;18.50;99.90;;;;;;5001454;28;20489;-76
2022/09/08 05:48:41;;;;;;;1.77;0.90;;;18.40;99.90;;;;;;5003438;28;20491;-76
2022/09/08 05:51:17;;;;;;;1.65;0.95;;;18.40;99.90;;;;;;5001957;28;20050;-76
2022/09/08 05:53:44;;;;;;;2.88;1.23;;;18.40;99.90;;;;;;5006279;28;20490;-76
2022/09/08 05:56:12;;;;;;;2.55;1.10;;;18.50;99.90;;;;;;5004306;28;20042;-76
2022/09/08 05:58:38;;;;;;;3.08;0.90;;;18.50;99.90;;;;;;5001392;28;20505;-75
2022/09/08 06:01:11;;;;;;;2.67;1.00;;;18.50;99.90;;;;;;5007142;28;20046;-76
2022/09/08 06:03:38;;;;;;;2.28;1.13;;;18.50;99.90;;;;;;5001552;28;20054;-76
2022/09/08 06:06:07;;;;;;;3.83;1.45;;;18.50;99.90;;;;;;5003881;28;20468;-77
2022/09/08 06:08:37;;;;;;;1.90;1.00;;;18.60;99.90;;;;;;5001715;28;20051;-77
2022/09/08 06:11:05;;;;;;;2.25;1.10;;;18.60;99.90;;;;;;5004600;28;20047;-77
2022/09/08 06:13:33;;;;;;;4.30;1.23;;;18.60;99.90;;;;;;5001166;28;20054;-77
2022/09/08 06:16:02;;;;;;;1.15;0.88;;;18.60;99.90;;;;;;5002922;28;20065;-78
2022/09/08 06:18:33;;;;;;;2.40;0.77;;;18.70;99.90;;;;;;5007639;28;20046;-75
2022/09/08 06:21:05;;;;;;;2.05;1.00;;;18.60;99.90;;;;;;5005929;28;20042;-76
2022/09/08 06:23:31;;;;;;;4.80;1.02;;;18.60;99.90;;;;;;5006063;28;20056;-75
2022/09/08 06:26:03;;;;;;;1.40;0.90;;;18.60;99.90;;;;;;5001763;28;20081;-75
2022/09/08 06:28:56;;;;;;;4.00;1.10;;;18.60;99.90;;;;;;5003041;28;20054;-75
2022/09/08 06:31:29;;;;;;;2.70;1.20;;;18.60;99.90;;;;;;5003232;28;20045;-75
2022/09/08 06:34:02;;;;;;;4.78;1.10;;;18.60;99.90;;;;;;5005539;28;20054;-75
2022/09/08 06:36:51;;;;;;;3.03;1.30;;;18.70;99.90;;;;;;5000966;28;20053;-75
2022/09/08 06:39:41;;;;;;;3.17;1.23;;;18.60;99.90;;;;;;5006395;28;20046;-75
2022/09/08 06:42:16;;;;;;;2.88;1.10;;;18.60;99.90;;;;;;4990049;28;20121;-74
2022/09/08 06:44:47;;;;;;;2.83;1.02;;;18.70;99.90;;;;;;5007379;28;20081;-75
2022/09/08 06:47:19;;;;;;;2.97;1.20;;;18.70;99.90;;;;;;4999794;28;20077;-75
2022/09/08 06:49:47;;;;;;;4.82;0.90;;;18.70;99.90;;;;;;5002772;28;20050;-74
2022/09/08 06:52:42;;;;;;;2.72;0.98;;;18.80;99.90;;;;;;5002329;28;20050;-75
2022/09/08 06:55:39;;;;;;;3.58;1.00;;;18.80;99.90;;;;;;5005268;28;20060;-74
2022/09/08 06:58:41;;;;;;;3.38;0.85;;;18.90;99.90;;;;;;5002851;28;20049;-76
2022/09/08 07:01:08;;;;;;;;;;;19.00;99.90;;;;;;4996583;28;20057;-75
2022/09/08 07:04:04;;;;;;;2.05;0.80;;;19.00;99.90;;;;;;5002743;28;20320;-75
2022/09/08 07:06:39;;;;;;;2.55;0.90;;;19.10;99.90;;;;;;5010031;28;20058;-76
2022/09/08 07:09:25;;;;;;;3.90;1.17;;;19.10;99.90;;;;;;5003970;28;20042;-75
2022/09/08 07:12:09;;;;;;;3.10;0.90;;;19.10;99.90;;;;;;5008783;28;20056;-75
2022/09/08 07:15:00;;;;;;;3.65;0.90;;;19.20;99.90;;;;;;5009338;28;20417;-76
2022/09/08 07:17:56;;;;;;;1.17;0.93;;;19.20;99.90;;;;;;4996749;28;20425;-74
2022/09/08 07:20:27;;;;;;;2.80;0.90;;;19.20;99.90;;;;;;5005383;28;20050;-75
2022/09/08 07:22:59;;;;;;;3.45;0.90;;;19.20;99.90;;;;;;4996648;28;20054;-75
2022/09/08 07:25:38;;;;;;;7.18;1.13;;;19.30;99.90;;;;;;5007097;28;20056;-75
2022/09/08 07:28:17;;;;;;;1.95;0.93;;;19.40;99.90;;;;;;5004633;28;20053;-75
2022/09/08 07:30:50;;;;;;;0.90;0.70;;;19.40;99.90;;;;;;5003779;28;20066;-75
2022/09/08 07:33:36;;;;;;;2.60;1.08;;;19.40;99.90;;;;;;5015850;28;20054;-75
2022/09/08 07:36:18;;;;;;;3.53;1.05;;;19.50;99.90;;;;;;4996374;28;20052;-75
2022/09/08 07:38:51;;;;;;;2.70;0.90;;;19.40;99.90;;;;;;5000215;28;20078;-75
2022/09/08 07:41:42;;;;;;;1.88;0.75;;;19.40;99.90;;;;;;5009107;28;20096;-75
2022/09/08 07:44:17;;;;;;;5.57;0.80;;;19.40;99.90;;;;;;5002145;28;20061;-75
2022/09/08 07:46:56;;;;;;;3.03;0.80;;;19.40;99.90;;;;;;5008291;28;20049;-75
2022/09/08 07:49:29;;;;;;;2.40;0.88;;;19.50;99.90;;;;;;5005265;28;20051;-75
2022/09/08 07:52:10;;;;;;;2.92;0.88;;;19.40;99.90;;;;;;5011873;28;20054;-75
2022/09/08 07:54:53;;;;;;;1.92;1.10;;;19.30;99.90;;;;;;5004191;28;20541;-76
2022/09/08 07:57:36;;;;;;;3.38;0.90;;;19.40;99.90;;;;;;4997824;28;20046;-75
2022/09/08 08:00:10;;;;;;;1.40;1.00;;;19.40;99.90;;;;;;5005704;28;20050;-75
2022/09/08 08:02:49;;;;;;;4.03;0.80;;;19.40;99.90;;;;;;4999786;28;20054;-75
2022/09/08 08:05:29;;;;;;;5.18;1.10;;;19.40;99.90;;;;;;5001339;28;20054;-75
2022/09/08 08:07:58;;;;;;;4.55;1.02;;;19.50;99.90;;;;;;5001267;28;20058;-75
2022/09/08 08:10:29;;;;;;;4.07;0.90;;;19.50;99.90;;;;;;5002254;28;20057;-75
2022/09/08 08:13:12;;;;;;;2.65;0.65;;;19.50;99.90;;;;;;5008137;28;20045;-75
2022/09/08 08:15:43;;;;;;;2.35;0.75;;;19.40;99.90;;;;;;4999910;28;20046;-75
2022/09/08 08:18:53;;;;;;;1.38;0.70;;;19.30;99.90;;;;;;5004857;28;20045;-75
2022/09/08 08:21:28;;;;;;;1.58;0.88;;;19.30;99.90;;;;;;5007380;28;20049;-75
2022/09/08 08:24:01;;;;;;;2.00;0.80;;;19.20;99.90;;;;;;5003284;28;20050;-75
2022/09/08 08:26:51;;;;;;;3.33;0.63;;;19.20;99.90;;;;;;5004793;28;20050;-75
2022/09/08 08:29:26;;;;;;;3.65;0.90;;;19.20;99.90;;;;;;5004159;28;20038;-75
2022/09/08 08:32:01;;;;;;;4.50;0.65;;;19.30;99.90;;;;;;5005045;28;20053;-76
2022/09/08 08:34:53;;;;;;;1.63;0.73;;;19.30;99.90;;;;;;5008033;28;20145;-75
2022/09/08 08:37:24;;;;;;;2.20;0.63;;;19.50;99.90;;;;;;5002125;28;20488;-76
2022/09/08 08:39:53;;;;;;;4.47;0.93;;;19.60;99.90;;;;;;5005041;28;20046;-75
2022/09/08 08:42:33;;;;;;;2.10;0.85;;;19.80;99.90;;;;;;5003324;28;20050;-75
2022/09/08 08:45:06;;;;;;;2.83;0.80;;;19.90;99.90;;;;;;5005015;28;20423;-75
2022/09/08 08:48:13;;;;;;;1.27;0.60;;;20.00;99.90;;;;;;5002922;28;20415;-75
2022/09/08 08:51:15;;;;;;;2.95;0.90;;;20.10;99.90;;;;;;5007212;28;20050;-75
2022/09/08 08:54:06;;;;;;;2.55;0.50;;;20.10;99.90;;;;;;4987084;28;20092;-75
2022/09/08 08:56:51;;;;;;;4.30;1.05;;;20.10;99.90;;;;;;5005202;28;20054;-75
2022/09/08 08:59:42;;;;;;;1.77;0.55;;;20.10;99.90;;;;;;5007433;28;20060;-75
2022/09/08 09:02:24;;;;;;;2.50;0.60;;;20.10;99.90;;;;;;5008698;28;20092;-75
2022/09/08 09:05:13;;;;;;;3.40;0.82;;;20.10;99.90;;;;;;5002082;28;20054;-75
2022/09/08 09:08:03;;;;;;;1.88;0.60;;;20.10;99.90;;;;;;5006281;28;20121;-76
2022/09/08 09:11:07;;;;;;;3.13;0.65;;;20.20;99.90;;;;;;5002721;28;20058;-75
2022/09/08 09:13:56;;;;;;;1.35;0.73;;;20.20;99.90;;;;;;5005619;28;20038;-76
2022/09/08 09:16:44;;;;;;;3.20;0.80;;;20.30;99.90;;;;;;5005749;28;20054;-75
2022/09/08 09:19:35;;;;;;;3.35;0.68;;;20.20;99.90;;;;;;5000355;28;20046;-76
2022/09/08 09:22:31;;;;;;;2.85;0.77;;;20.20;99.90;;;;;;4999183;28;20057;-76
2022/09/08 09:25:11;;;;;;;1.88;0.55;;;20.30;99.90;;;;;;4999832;28;20050;-76
2022/09/08 09:27:50;;;;;;;2.00;0.68;;;20.30;99.90;;;;;;5009405;28;20046;-76
2022/09/08 09:30:22;;;;;;;3.55;0.98;;;20.50;99.90;;;;;;5009439;28;20050;-76
2022/09/08 09:33:24;;;;;;;5.53;1.20;;;20.60;99.90;;;;;;4998818;28;20051;-75
2022/09/08 09:36:06;;;;;;;6.25;0.82;;;20.70;99.90;;;;;;5004459;28;20416;-75
2022/09/08 09:38:59;;;;;;;4.22;1.17;;;21.00;99.90;;;;;;4998243;28;20057;-75
2022/09/08 09:41:51;;;;;;;4.78;1.02;;;21.10;99.90;;;;;;5003048;28;20057;-75
2022/09/08 09:44:40;;;;;;;6.35;0.85;;;21.10;99.90;;;;;;5003707;28;20054;-75
2022/09/08 09:47:18;;;;;;;3.85;1.00;;;21.20;99.90;;;;;;5003662;28;20042;-75
2022/09/08 09:50:37;;;;;;;5.13;0.80;;;21.20;99.90;;;;;;5001368;28;20129;-75
2022/09/08 09:53:10;;;;;;;6.28;0.82;;;21.10;99.90;;;;;;4958702;28;20050;-76
2022/09/08 09:56:06;;;;;;;6.63;0.90;;;21.10;99.90;;;;;;5006550;28;20105;-76
2022/09/08 09:58:48;;;;;;;6.13;1.25;;;21.20;99.90;;;;;;5002937;28;20129;-75
2022/09/08 10:01:26;;;;;;;1.95;0.52;;;21.00;99.90;;;;;;5010608;28;20050;-76
2022/09/08 10:04:22;;;;;;;3.47;0.93;;;21.00;99.90;;;;;;5005749;28;20042;-75
2022/09/08 10:07:16;;;;;;;3.10;1.00;;;20.90;99.90;;;;;;4997361;28;20054;-75
2022/09/08 10:09:54;;;;;;;6.43;1.55;;;20.80;99.90;;;;;;5005269;28;20523;-75
2022/09/08 10:13:05;;;;;;;6.43;1.00;;;20.70;99.90;;;;;;4996740;28;20457;-75
2022/09/08 10:15:56;;;;;;;7.47;0.80;;;20.70;99.90;;;;;;5003144;28;20078;-75
2022/09/08 10:18:57;;;;;;;2.58;1.13;;;20.50;99.90;;;;;;5009208;28;20117;-76
2022/09/08 10:21:36;;;;;;;4.88;0.93;;;20.50;99.90;;;;;;5005036;28;20050;-75
2022/09/08 10:24:14;;;;;;;5.65;0.75;;;20.30;99.90;;;;;;4998108;28;20054;-74
2022/09/08 10:27:02;;;;;;;9.45;1.02;;;20.20;99.90;;;;;;5006540;28;20069;-75
2022/09/08 10:29:34;;;;;;;5.55;0.90;;;20.10;99.90;;;;;;5007292;28;20057;-75
2022/09/08 10:32:00;;;;;;;3.13;0.73;;;20.10;99.90;;;;;;5007156;28;20511;-75
2022/09/08 10:34:40;;;;;;;9.15;1.13;;;20.10;99.90;;;;;;5000097;28;20054;-75
2022/09/08 10:37:36;;;;;;;4.40;1.10;;;20.00;99.90;;;;;;5003459;28;20065;-75
2022/09/08 10:40:30;;;;;;;3.40;0.95;;;20.10;99.90;;;;;;5001920;28;20049;-76
2022/09/08 10:43:34;;;;;;;4.20;0.82;;;20.00;99.90;;;;;;5003902;28;20045;-75
2022/09/08 10:46:29;;;;;;;6.00;1.05;;;20.10;99.90;;;;;;5000143;28;20050;-75
2022/09/08 10:49:26;;;;;;;5.03;0.98;;;20.30;99.90;;;;;;5006134;28;20104;-75
2022/09/08 10:52:23;;;;;;;4.93;0.82;;;20.50;99.90;;;;;;5004482;28;20512;-75
2022/09/08 10:54:52;;;;;;;4.53;0.85;;;20.70;99.90;;;;;;5009136;28;20052;-76
2022/09/08 10:57:34;;;;;;;2.88;0.73;;;20.80;99.90;;;;;;5001399;28;20050;-75
2022/09/08 11:00:13;;;;;;;6.40;0.90;;;20.90;99.90;;;;;;4999402;28;20524;-75
2022/09/08 11:02:58;;;;;;;4.82;1.20;;;21.00;99.90;;;;;;5001536;28;20045;-75
2022/09/08 11:05:42;;;;;;;3.58;1.00;;;21.00;99.90;;;;;;5010152;28;20515;-75
2022/09/08 11:08:18;;;;;;;2.50;0.85;;;21.10;99.90;;;;;;5004159;28;20046;-75
2022/09/08 11:10:53;;;;;;;3.83;1.00;;;21.20;99.90;;;;;;4993990;28;20054;-75
2022/09/08 11:13:34;;;;;;;8.60;0.80;;;21.30;99.90;;;;;;4998580;28;20054;-75
2022/09/08 11:16:22;;;;;;;4.07;0.68;;;21.40;99.90;;;;;;4996267;28;20042;-75
2022/09/08 11:19:01;;;;;;;5.93;1.05;;;21.60;99.90;;;;;;5003591;28;20050;-76
2022/09/08 11:22:17;;;;;;;5.28;0.80;;;21.70;99.90;;;;;;5006699;28;20050;-75
2022/09/08 11:25:21;;;;;;;8.52;1.00;;;21.90;99.90;;;;;;4995261;28;20045;-76
2022/09/08 11:28:04;;;;;;;3.83;0.90;;;22.00;99.90;;;;;;4994977;28;20046;-75
2022/09/08 11:30:57;;;;;;;3.47;0.80;;;22.10;99.90;;;;;;4991674;28;20078;-75
2022/09/08 11:33:54;;;;;;;5.88;0.70;;;22.10;99.90;;;;;;4994400;28;20050;-75
2022/09/08 11:36:39;;;;;;;3.88;0.82;;;22.10;99.90;;;;;;5006138;28;20057;-74
2022/09/08 11:39:19;;;;;;;4.28;0.52;;;22.20;99.90;;;;;;4996710;28;20050;-75
2022/09/08 11:42:17;;;;;;;2.28;0.60;;;22.20;99.90;;;;;;5003861;28;20060;-75
2022/09/08 11:44:58;;;;;;;2.08;0.60;;;22.10;99.90;;;;;;4998337;28;20053;-75
2022/09/08 11:47:36;;;;;;;;;;;22.00;99.90;;;;;;5006870;28;20095;-75
2022/09/08 11:50:21;;;;;;;1.63;0.50;;;22.00;99.90;;;;;;4999644;28;19933;-75
2022/09/08 11:53:08;;;;;;;3.70;0.63;;;21.90;99.90;;;;;;5008628;28;20074;-76
2022/09/08 11:56:13;;;;;;;1.70;0.80;;;21.90;99.90;;;;;;4998920;28;20054;-75
2022/09/08 11:59:25;;;;;;;2.38;0.60;;;22.00;99.90;;;;;;5005399;28;20393;-75
2022/09/08 12:02:13;;;;;;;5.82;1.02;;;22.20;99.90;;;;;;4997801;28;20049;-75
2022/09/08 12:04:55;;;;;;;6.20;1.85;;;22.30;99.90;;;;;;5007507;28;20517;-75
2022/09/08 12:08:07;;;;;;;6.63;0.68;;;22.30;99.90;;;;;;4998779;28;20046;-75
2022/09/08 12:10:34;;;;;;;3.38;0.50;;;22.30;99.90;;;;;;5007126;28;20054;-75
2022/09/08 12:13:09;;;;;;;3.38;0.93;;;22.20;99.90;;;;;;5000631;28;20429;-75
2022/09/08 12:16:00;;;;;;;3.78;0.77;;;22.20;99.90;;;;;;4999656;28;20050;-75
2022/09/08 12:18:55;;;;;;;3.35;0.80;;;22.20;99.90;;;;;;4998284;28;20078;-75
2022/09/08 12:21:56;;;;;;;2.10;0.68;;;22.20;99.90;;;;;;4998222;28;20042;-75
2022/09/08 12:24:32;;;;;;;;;;;22.10;99.90;;;;;;5001450;28;20050;-75
2022/09/08 12:27:40;;;;;;;3.72;0.70;;;22.10;99.90;;;;;;4997565;28;19976;-75
2022/09/08 12:30:15;;;;;;;2.72;1.20;;;22.00;99.90;;;;;;5000212;28;20096;-75
2022/09/08 12:32:51;;;;;;;3.17;0.60;;;22.00;99.90;;;;;;5008734;28;20053;-75
2022/09/08 12:35:21;;;;;;;4.80;0.68;;;22.10;99.90;;;;;;5016971;28;20050;-75
2022/09/08 12:38:30;;;;;;;4.45;0.80;;;22.10;99.90;;;;;;5007658;28;20137;-75
2022/09/08 12:40:57;;;;;;;;;;;22.20;99.90;;;;;;4993092;28;20074;-75
2022/09/08 12:43:30;;;;;;;4.30;0.90;;;22.30;99.90;;;;;;4991478;28;19922;-75
2022/09/08 12:46:31;;;;;;;3.90;1.52;;;22.50;99.90;;;;;;4991518;28;20050;-75
2022/09/08 12:49:16;;;;;;;3.25;0.50;;;22.60;99.90;;;;;;5000882;28;20078;-75
2022/09/08 12:51:55;;;;;;;2.72;0.70;;;22.70;99.90;;;;;;5006555;28;20057;-75
2022/09/08 12:54:39;;;;;;;3.30;0.95;;;22.70;99.90;;;;;;4998297;28;20046;-75
2022/09/08 12:57:43;;;;;;;2.60;0.80;;;22.70;99.90;;;;;;5005604;28;20503;-75
2022/09/08 13:00:16;;;;;;;2.28;0.55;;;22.70;99.90;;;;;;4999233;28;20054;-74
2022/09/08 13:02:58;;;;;;;4.30;0.95;;;22.80;99.90;;;;;;5002523;28;20065;-74
2022/09/08 13:06:00;;;;;;;3.38;0.70;;;22.90;99.90;;;;;;5004966;28;20141;-75
2022/09/08 13:08:56;;;;;;;2.30;0.47;;;23.00;99.90;;;;;;5009495;28;20054;-75
2022/09/08 13:11:45;;;;;;;2.25;0.60;;;23.00;99.90;;;;;;5003328;28;20056;-76
2022/09/08 13:14:14;;;;;;;4.30;0.63;;;23.10;99.90;;;;;;5008788;28;20068;-75
2022/09/08 13:16:50;;;;;;;2.88;0.85;;;23.10;99.90;;;;;;5004939;28;20057;-75
2022/09/08 13:19:25;;;;;;;4.57;0.80;;;23.10;99.90;;;;;;4998274;28;20050;-75
2022/09/08 13:22:12;;;;;;;2.83;0.60;;;23.00;99.90;;;;;;5011486;28;20049;-75
2022/09/08 13:24:53;;;;;;;6.47;0.70;;;23.10;99.90;;;;;;4999685;28;20054;-76
2022/09/08 13:27:39;;;;;;;4.15;0.60;;;23.10;99.90;;;;;;5007766;28;20054;-76
2022/09/08 13:30:18;;;;;;;3.35;0.68;;;23.10;99.90;;;;;;4998671;28;20054;-76
2022/09/08 13:33:00;;;;;;;3.25;0.80;;;23.10;99.90;;;;;;5005897;28;20135;-76
2022/09/08 13:35:48;;;;;;;5.53;0.75;;;23.00;99.90;;;;;;4999810;28;20050;-76
2022/09/08 13:38:52;;;;;;;2.17;0.60;;;23.00;99.90;;;;;;5007024;28;20049;-76
2022/09/08 13:41:56;;;;;;;3.90;1.05;;;22.90;99.90;;;;;;5007842;28;20042;-76
2022/09/08 13:44:40;;;;;;;2.30;0.63;;;22.80;99.90;;;;;;4995836;28;20054;-76